sensor_id;sensor_type;location;lat;lon;timestamp;pressure;altitude;pressure_sealevel;temperature;humidity
74561;BME280;62979;55.720;37.606;2023-04-24T00:01:10;99750.41;;;18.02;30.42
74561;BME280;62979;55.720;37.606;2023-04-24T00:03:38;99742.78;;;17.96;30.53
74561;BME280;62979;55.720;37.606;2023-04-24T00:06:05;99744.91;;;17.89;30.56
74561;BME280;62979;55.720;37.606;2023-04-24T00:08:34;99742.25;;;17.89;30.68
74561;BME280;62979;55.720;37.606;2023-04-24T00:11:01;99744.31;;;17.84;30.85
74561;BME280;62979;55.720;37.606;2023-04-24T00:13:28;99739.31;;;17.78;30.80
74561;BME280;62979;55.720;37.606;2023-04-24T00:15:55;99740.72;;;17.68;31.23
74561;BME280;62979;55.720;37.606;2023-04-24T00:18:23;99747.75;;;17.69;31.34
74561;BME280;62979;55.720;37.606;2023-04-24T00:20:50;99745.78;;;17.72;31.38
74561;BME280;62979;55.720;37.606;2023-04-24T00:23:17;99752.44;;;17.80;31.32
74561;BME280;62979;55.720;37.606;2023-04-24T00:25:44;99748.34;;;17.74;31.13
74561;BME280;62979;55.720;37.606;2023-04-24T00:28:11;99749.28;;;17.73;31.27
74561;BME280;62979;55.720;37.606;2023-04-24T00:30:38;99745.88;;;17.71;31.32
74561;BME280;62979;55.720;37.606;2023-04-24T00:33:05;99746.66;;;17.73;31.05
74561;BME280;62979;55.720;37.606;2023-04-24T00:35:33;99746.00;;;17.68;31.42
74561;BME280;62979;55.720;37.606;2023-04-24T00:38:00;99747.19;;;17.62;31.36
74561;BME280;62979;55.720;37.606;2023-04-24T00:40:27;99745.03;;;17.70;31.13
74561;BME280;62979;55.720;37.606;2023-04-24T00:42:54;99753.63;;;17.74;31.12
74561;BME280;62979;55.720;37.606;2023-04-24T00:45:22;99751.94;;;17.73;30.59
74561;BME280;62979;55.720;37.606;2023-04-24T00:47:49;99752.31;;;17.65;30.78
74561;BME280;62979;55.720;37.606;2023-04-24T00:50:20;99753.19;;;17.66;30.60
74561;BME280;62979;55.720;37.606;2023-04-24T00:52:49;99749.00;;;17.62;30.77
74561;BME280;62979;55.720;37.606;2023-04-24T00:55:17;99755.53;;;17.54;31.11
74561;BME280;62979;55.720;37.606;2023-04-24T00:57:44;99751.34;;;17.50;31.03
74561;BME280;62979;55.720;37.606;2023-04-24T01:00:14;99751.69;;;17.44;30.82
74561;BME280;62979;55.720;37.606;2023-04-24T01:02:43;99753.22;;;17.48;31.22
74561;BME280;62979;55.720;37.606;2023-04-24T01:05:11;99751.09;;;17.55;31.11
74561;BME280;62979;55.720;37.606;2023-04-24T01:07:41;99753.75;;;17.55;31.27
74561;BME280;62979;55.720;37.606;2023-04-24T01:10:13;99748.78;;;17.49;31.38
74561;BME280;62979;55.720;37.606;2023-04-24T01:12:42;99748.94;;;17.46;31.65
74561;BME280;62979;55.720;37.606;2023-04-24T01:15:10;99746.44;;;17.43;31.87
74561;BME280;62979;55.720;37.606;2023-04-24T01:17:37;99746.38;;;17.44;31.55
74561;BME280;62979;55.720;37.606;2023-04-24T01:20:05;99753.38;;;17.45;31.37
74561;BME280;62979;55.720;37.606;2023-04-24T01:22:34;99748.88;;;17.47;31.36
74561;BME280;62979;55.720;37.606;2023-04-24T01:25:01;99748.88;;;17.47;31.10
74561;BME280;62979;55.720;37.606;2023-04-24T01:27:30;99739.53;;;17.40;31.34
74561;BME280;62979;55.720;37.606;2023-04-24T01:29:57;99732.56;;;17.39;31.33
74561;BME280;62979;55.720;37.606;2023-04-24T01:32:24;99743.81;;;17.43;31.62
74561;BME280;62979;55.720;37.606;2023-04-24T01:34:51;99750.28;;;17.37;31.46
74561;BME280;62979;55.720;37.606;2023-04-24T01:37:18;99752.38;;;17.30;31.60
74561;BME280;62979;55.720;37.606;2023-04-24T01:39:47;99737.38;;;17.31;31.64
74561;BME280;62979;55.720;37.606;2023-04-24T01:42:14;99749.06;;;17.27;31.94
74561;BME280;62979;55.720;37.606;2023-04-24T01:44:41;99739.56;;;17.23;31.69
74561;BME280;62979;55.720;37.606;2023-04-24T01:47:09;99736.22;;;17.19;31.81
74561;BME280;62979;55.720;37.606;2023-04-24T01:49:37;99733.50;;;17.21;31.97
74561;BME280;62979;55.720;37.606;2023-04-24T01:52:04;99737.31;;;17.15;32.18
74561;BME280;62979;55.720;37.606;2023-04-24T01:54:31;99737.38;;;17.14;32.19
74561;BME280;62979;55.720;37.606;2023-04-24T01:56:59;99740.81;;;17.16;32.34
74561;BME280;62979;55.720;37.606;2023-04-24T01:59:28;99732.25;;;17.10;32.30
74561;BME280;62979;55.720;37.606;2023-04-24T02:01:56;99733.03;;;17.13;32.50
74561;BME280;62979;55.720;37.606;2023-04-24T02:04:23;99733.81;;;17.15;32.64
74561;BME280;62979;55.720;37.606;2023-04-24T02:06:50;99730.56;;;17.09;32.47
74561;BME280;62979;55.720;37.606;2023-04-24T02:09:17;99737.47;;;17.12;32.77
74561;BME280;62979;55.720;37.606;2023-04-24T02:11:44;99734.44;;;17.02;32.76
74561;BME280;62979;55.720;37.606;2023-04-24T02:14:12;99731.19;;;16.97;32.79
74561;BME280;62979;55.720;37.606;2023-04-24T02:16:39;99750.44;;;16.99;33.05
74561;BME280;62979;55.720;37.606;2023-04-24T02:19:06;99734.72;;;16.96;32.81
74561;BME280;62979;55.720;37.606;2023-04-24T02:21:33;99739.00;;;16.99;33.19
74561;BME280;62979;55.720;37.606;2023-04-24T02:24:00;99730.22;;;16.98;33.08
74561;BME280;62979;55.720;37.606;2023-04-24T02:26:27;99732.31;;;16.92;33.11
74561;BME280;62979;55.720;37.606;2023-04-24T02:28:57;99742.72;;;16.95;33.44
74561;BME280;62979;55.720;37.606;2023-04-24T02:31:26;99748.72;;;16.98;33.34
74561;BME280;62979;55.720;37.606;2023-04-24T02:33:53;99747.16;;;16.94;33.37
74561;BME280;62979;55.720;37.606;2023-04-24T02:36:20;99750.59;;;16.96;33.57
74561;BME280;62979;55.720;37.606;2023-04-24T02:38:47;99741.97;;;16.93;33.54
74561;BME280;62979;55.720;37.606;2023-04-24T02:41:14;99752.59;;;16.91;33.46
74561;BME280;62979;55.720;37.606;2023-04-24T02:43:41;99749.19;;;16.89;33.48
74561;BME280;62979;55.720;37.606;2023-04-24T02:46:08;99752.16;;;16.83;34.07
74561;BME280;62979;55.720;37.606;2023-04-24T02:48:38;99749.50;;;16.83;33.98
74561;BME280;62979;55.720;37.606;2023-04-24T02:51:05;99757.19;;;16.87;33.81
74561;BME280;62979;55.720;37.606;2023-04-24T02:53:32;99756.94;;;16.92;33.81
74561;BME280;62979;55.720;37.606;2023-04-24T02:55:59;99766.75;;;16.90;33.99
74561;BME280;62979;55.720;37.606;2023-04-24T02:58:26;99759.59;;;16.92;33.95
74561;BME280;62979;55.720;37.606;2023-04-24T03:00:53;99762.09;;;16.95;34.00
74561;BME280;62979;55.720;37.606;2023-04-24T03:03:21;99760.38;;;16.94;33.84
74561;BME280;62979;55.720;37.606;2023-04-24T03:05:50;99765.59;;;16.96;34.08
74561;BME280;62979;55.720;37.606;2023-04-24T03:08:17;99772.44;;;17.00;33.86
74561;BME280;62979;55.720;37.606;2023-04-24T03:10:44;99762.56;;;17.03;33.75
74561;BME280;62979;55.720;37.606;2023-04-24T03:13:11;99764.13;;;17.07;33.46
74561;BME280;62979;55.720;37.606;2023-04-24T03:15:37;99766.59;;;17.10;33.43
74561;BME280;62979;55.720;37.606;2023-04-24T03:18:04;99759.53;;;17.11;33.15
74561;BME280;62979;55.720;37.606;2023-04-24T03:20:31;99762.66;;;17.19;32.86
74561;BME280;62979;55.720;37.606;2023-04-24T03:23:00;99768.63;;;17.23;32.88
74561;BME280;62979;55.720;37.606;2023-04-24T03:25:26;99763.34;;;17.23;32.79
74561;BME280;62979;55.720;37.606;2023-04-24T03:27:53;99772.97;;;17.24;32.94
74561;BME280;62979;55.720;37.606;2023-04-24T03:30:20;99766.59;;;17.28;32.94
74561;BME280;62979;55.720;37.606;2023-04-24T03:32:49;99766.44;;;17.31;32.86
74561;BME280;62979;55.720;37.606;2023-04-24T03:35:15;99766.44;;;17.31;32.91
74561;BME280;62979;55.720;37.606;2023-04-24T03:37:42;99773.13;;;17.38;32.83
74561;BME280;62979;55.720;37.606;2023-04-24T03:40:11;99772.28;;;17.38;32.99
74561;BME280;62979;55.720;37.606;2023-04-24T03:42:38;99768.84;;;17.36;33.03
74561;BME280;62979;55.720;37.606;2023-04-24T03:45:06;99780.66;;;17.46;33.03
74561;BME280;62979;55.720;37.606;2023-04-24T03:47:34;99772.81;;;17.44;32.94
74561;BME280;62979;55.720;37.606;2023-04-24T03:50:01;99776.88;;;17.51;32.98
74561;BME280;62979;55.720;37.606;2023-04-24T03:52:28;99781.03;;;17.55;33.07
74561;BME280;62979;55.720;37.606;2023-04-24T03:54:55;99779.94;;;17.60;32.66
74561;BME280;62979;55.720;37.606;2023-04-24T03:57:23;99780.50;;;17.66;32.83
74561;BME280;62979;55.720;37.606;2023-04-24T03:59:50;99787.34;;;17.70;33.47
74561;BME280;62979;55.720;37.606;2023-04-24T04:02:18;99788.97;;;17.73;32.43
74561;BME280;62979;55.720;37.606;2023-04-24T04:04:45;99785.84;;;17.82;32.91
74561;BME280;62979;55.720;37.606;2023-04-24T04:07:12;99795.94;;;17.91;32.68
74561;BME280;62979;55.720;37.606;2023-04-24T04:09:39;99791.19;;;17.98;32.45
74561;BME280;62979;55.720;37.606;2023-04-24T04:12:06;99799.97;;;17.99;31.74
74561;BME280;62979;55.720;37.606;2023-04-24T04:14:34;99796.41;;;18.00;32.08
74561;BME280;62979;55.720;37.606;2023-04-24T04:17:01;99794.28;;;18.06;32.32
74561;BME280;62979;55.720;37.606;2023-04-24T04:19:28;99792.34;;;18.10;32.24
74561;BME280;62979;55.720;37.606;2023-04-24T04:21:56;99779.88;;;18.12;31.63
74561;BME280;62979;55.720;37.606;2023-04-24T04:24:23;99797.09;;;18.19;31.44
74561;BME280;62979;55.720;37.606;2023-04-24T04:26:51;99793.47;;;18.22;31.36
74561;BME280;62979;55.720;37.606;2023-04-24T04:29:22;99794.13;;;18.25;31.71
74561;BME280;62979;55.720;37.606;2023-04-24T04:31:50;99787.06;;;18.42;32.14
74561;BME280;62979;55.720;37.606;2023-04-24T04:34:17;99789.63;;;18.59;31.30
74561;BME280;62979;55.720;37.606;2023-04-24T04:36:44;99792.88;;;18.80;31.23
74561;BME280;62979;55.720;37.606;2023-04-24T04:39:11;99798.34;;;18.93;31.10
74561;BME280;62979;55.720;37.606;2023-04-24T04:41:39;99798.56;;;19.04;30.38
74561;BME280;62979;55.720;37.606;2023-04-24T04:44:07;99800.50;;;19.16;30.48
74561;BME280;62979;55.720;37.606;2023-04-24T04:46:35;99799.56;;;19.17;29.75
74561;BME280;62979;55.720;37.606;2023-04-24T04:49:05;99798.28;;;19.24;29.97
74561;BME280;62979;55.720;37.606;2023-04-24T04:51:33;99805.09;;;19.29;29.46
74561;BME280;62979;55.720;37.606;2023-04-24T04:54:00;99801.31;;;19.33;29.26
74561;BME280;62979;55.720;37.606;2023-04-24T04:56:27;99800.88;;;19.40;29.41
74561;BME280;62979;55.720;37.606;2023-04-24T04:58:54;99804.50;;;19.54;28.90
74561;BME280;62979;55.720;37.606;2023-04-24T05:01:21;99798.53;;;19.50;28.75
74561;BME280;62979;55.720;37.606;2023-04-24T05:03:49;99810.13;;;19.63;28.69
74561;BME280;62979;55.720;37.606;2023-04-24T05:06:17;99801.72;;;19.71;28.55
74561;BME280;62979;55.720;37.606;2023-04-24T05:08:44;99799.16;;;19.70;28.10
74561;BME280;62979;55.720;37.606;2023-04-24T05:11:12;99798.31;;;19.69;28.42
74561;BME280;62979;55.720;37.606;2023-04-24T05:13:40;99806.00;;;19.74;28.40
74561;BME280;62979;55.720;37.606;2023-04-24T05:16:07;99797.06;;;19.75;28.54
74561;BME280;62979;55.720;37.606;2023-04-24T05:18:34;99807.13;;;19.84;28.00
74561;BME280;62979;55.720;37.606;2023-04-24T05:21:00;99809.50;;;19.88;28.79
74561;BME280;62979;55.720;37.606;2023-04-24T05:23:29;99812.66;;;19.95;28.72
74561;BME280;62979;55.720;37.606;2023-04-24T05:25:56;99806.84;;;20.03;28.67
74561;BME280;62979;55.720;37.606;2023-04-24T05:28:23;99809.03;;;20.10;28.16
74561;BME280;62979;55.720;37.606;2023-04-24T05:30:53;99808.06;;;20.12;27.74
74561;BME280;62979;55.720;37.606;2023-04-24T05:33:21;99809.59;;;20.16;28.19
74561;BME280;62979;55.720;37.606;2023-04-24T05:35:48;99809.41;;;20.19;27.80
74561;BME280;62979;55.720;37.606;2023-04-24T05:38:15;99807.78;;;20.16;27.96
74561;BME280;62979;55.720;37.606;2023-04-24T05:40:44;99802.59;;;20.29;27.63
74561;BME280;62979;55.720;37.606;2023-04-24T05:43:12;99797.06;;;20.32;27.63
74561;BME280;62979;55.720;37.606;2023-04-24T05:45:39;99800.28;;;20.37;26.81
74561;BME280;62979;55.720;37.606;2023-04-24T05:48:06;99791.19;;;20.41;26.92
74561;BME280;62979;55.720;37.606;2023-04-24T05:50:33;99779.03;;;20.37;26.96
74561;BME280;62979;55.720;37.606;2023-04-24T05:53:00;99795.88;;;20.50;26.28
74561;BME280;62979;55.720;37.606;2023-04-24T05:55:27;99793.44;;;20.47;26.19
74561;BME280;62979;55.720;37.606;2023-04-24T05:57:56;99789.47;;;20.40;26.19
74561;BME280;62979;55.720;37.606;2023-04-24T06:00:23;99788.88;;;20.49;26.40
74561;BME280;62979;55.720;37.606;2023-04-24T06:02:50;99797.91;;;20.61;25.88
74561;BME280;62979;55.720;37.606;2023-04-24T06:05:18;99789.81;;;20.63;25.92
74561;BME280;62979;55.720;37.606;2023-04-24T06:07:44;99793.06;;;20.68;25.56
74561;BME280;62979;55.720;37.606;2023-04-24T06:10:11;99791.50;;;20.78;25.15
74561;BME280;62979;55.720;37.606;2023-04-24T06:12:38;99801.56;;;20.73;25.56
74561;BME280;62979;55.720;37.606;2023-04-24T06:15:08;99788.63;;;20.81;25.80
74561;BME280;62979;55.720;37.606;2023-04-24T06:17:35;99791.84;;;20.86;25.10
74561;BME280;62979;55.720;37.606;2023-04-24T06:20:03;99792.84;;;20.71;24.26
74561;BME280;62979;55.720;37.606;2023-04-24T06:22:30;99793.94;;;20.81;25.58
74561;BME280;62979;55.720;37.606;2023-04-24T06:24:59;99799.06;;;20.84;25.49
74561;BME280;62979;55.720;37.606;2023-04-24T06:27:26;99793.56;;;20.87;25.07
74561;BME280;62979;55.720;37.606;2023-04-24T06:29:53;99798.25;;;20.97;25.35
74561;BME280;62979;55.720;37.606;2023-04-24T06:32:22;99784.94;;;20.97;25.66
74561;BME280;62979;55.720;37.606;2023-04-24T06:34:51;99799.16;;;21.10;24.77
74561;BME280;62979;55.720;37.606;2023-04-24T06:37:18;99802.00;;;21.07;23.61
74561;BME280;62979;55.720;37.606;2023-04-24T06:39:46;99787.63;;;20.97;22.72
74561;BME280;62979;55.720;37.606;2023-04-24T06:42:13;99772.28;;;20.87;22.25
74561;BME280;62979;55.720;37.606;2023-04-24T06:44:41;99793.34;;;20.90;22.49
74561;BME280;62979;55.720;37.606;2023-04-24T06:47:09;99795.63;;;20.82;22.22
74561;BME280;62979;55.720;37.606;2023-04-24T06:49:39;99792.50;;;20.90;21.83
74561;BME280;62979;55.720;37.606;2023-04-24T06:52:06;99791.84;;;20.86;22.43
74561;BME280;62979;55.720;37.606;2023-04-24T06:54:33;99799.72;;;20.88;22.33
74561;BME280;62979;55.720;37.606;2023-04-24T06:57:00;99799.31;;;20.94;22.21
74561;BME280;62979;55.720;37.606;2023-04-24T06:59:28;99803.03;;;20.91;21.62
74561;BME280;62979;55.720;37.606;2023-04-24T07:01:55;99809.19;;;20.65;21.61
74561;BME280;62979;55.720;37.606;2023-04-24T07:04:22;99786.59;;;20.58;22.15
74561;BME280;62979;55.720;37.606;2023-04-24T07:06:51;99817.53;;;20.73;21.57
74561;BME280;62979;55.720;37.606;2023-04-24T07:09:21;99808.81;;;20.57;21.63
74561;BME280;62979;55.720;37.606;2023-04-24T07:11:49;99805.13;;;20.59;22.13
74561;BME280;62979;55.720;37.606;2023-04-24T07:14:17;99813.69;;;20.77;21.43
74561;BME280;62979;55.720;37.606;2023-04-24T07:16:44;99810.47;;;20.72;21.54
74561;BME280;62979;55.720;37.606;2023-04-24T07:19:11;99810.28;;;20.75;21.73
74561;BME280;62979;55.720;37.606;2023-04-24T07:21:39;99813.94;;;20.87;21.65
74561;BME280;62979;55.720;37.606;2023-04-24T07:24:08;99809.94;;;20.94;21.39
74561;BME280;62979;55.720;37.606;2023-04-24T07:26:37;99808.13;;;20.94;21.83
74561;BME280;62979;55.720;37.606;2023-04-24T07:29:04;99810.63;;;21.10;21.72
74561;BME280;62979;55.720;37.606;2023-04-24T07:31:31;99818.38;;;21.01;21.58
74561;BME280;62979;55.720;37.606;2023-04-24T07:34:00;99825.63;;;20.84;21.41
74561;BME280;62979;55.720;37.606;2023-04-24T07:36:27;99816.19;;;20.80;21.18
74561;BME280;62979;55.720;37.606;2023-04-24T07:38:54;99805.88;;;20.88;21.16
74561;BME280;62979;55.720;37.606;2023-04-24T07:41:23;99802.47;;;20.86;21.00
74561;BME280;62979;55.720;37.606;2023-04-24T07:43:50;99813.06;;;21.01;21.63
74561;BME280;62979;55.720;37.606;2023-04-24T07:46:17;99817.41;;;21.02;21.13
74561;BME280;62979;55.720;37.606;2023-04-24T07:48:44;99832.94;;;20.95;20.88
74561;BME280;62979;55.720;37.606;2023-04-24T07:51:13;99806.34;;;20.95;21.14
74561;BME280;62979;55.720;37.606;2023-04-24T07:53:40;99801.53;;;20.87;21.31
74561;BME280;62979;55.720;37.606;2023-04-24T07:56:07;99793.13;;;20.93;21.21
74561;BME280;62979;55.720;37.606;2023-04-24T07:58:36;99797.25;;;21.12;21.47
74561;BME280;62979;55.720;37.606;2023-04-24T08:01:03;99814.50;;;21.19;20.56
74561;BME280;62979;55.720;37.606;2023-04-24T08:03:30;99804.75;;;21.32;20.60
74561;BME280;62979;55.720;37.606;2023-04-24T08:05:57;99810.13;;;21.58;20.77
74561;BME280;62979;55.720;37.606;2023-04-24T08:08:24;99793.53;;;21.67;20.68
74561;BME280;62979;55.720;37.606;2023-04-24T08:10:51;99805.34;;;22.01;20.85
74561;BME280;62979;55.720;37.606;2023-04-24T08:13:18;99798.44;;;22.25;20.63
74561;BME280;62979;55.720;37.606;2023-04-24T08:15:46;99803.22;;;22.32;19.95
74561;BME280;62979;55.720;37.606;2023-04-24T08:18:13;99792.03;;;22.27;20.26
74561;BME280;62979;55.720;37.606;2023-04-24T08:20:41;99798.00;;;22.05;19.69
74561;BME280;62979;55.720;37.606;2023-04-24T08:23:08;99798.84;;;22.06;20.04
74561;BME280;62979;55.720;37.606;2023-04-24T08:25:34;99795.88;;;22.23;20.21
74561;BME280;62979;55.720;37.606;2023-04-24T08:28:02;99783.66;;;22.44;19.92
74561;BME280;62979;55.720;37.606;2023-04-24T08:30:30;99789.41;;;22.51;19.83
74561;BME280;62979;55.720;37.606;2023-04-24T08:32:58;99786.88;;;22.74;19.55
74561;BME280;62979;55.720;37.606;2023-04-24T08:35:25;99780.41;;;22.89;19.55
74561;BME280;62979;55.720;37.606;2023-04-24T08:37:52;99794.22;;;23.07;19.38
74561;BME280;62979;55.720;37.606;2023-04-24T08:40:22;99790.50;;;23.21;19.01
74561;BME280;62979;55.720;37.606;2023-04-24T08:42:54;99783.19;;;23.12;19.18
74561;BME280;62979;55.720;37.606;2023-04-24T08:45:23;99777.91;;;23.23;19.18
74561;BME280;62979;55.720;37.606;2023-04-24T08:47:52;99773.56;;;23.33;19.60
74561;BME280;62979;55.720;37.606;2023-04-24T08:50:22;99776.22;;;23.22;19.30
74561;BME280;62979;55.720;37.606;2023-04-24T08:52:50;99766.94;;;23.39;19.57
74561;BME280;62979;55.720;37.606;2023-04-24T08:55:18;99768.53;;;23.64;18.78
74561;BME280;62979;55.720;37.606;2023-04-24T08:57:50;99763.97;;;23.77;18.99
74561;BME280;62979;55.720;37.606;2023-04-24T09:00:20;99765.81;;;23.88;19.00
74561;BME280;62979;55.720;37.606;2023-04-24T09:02:49;99754.16;;;24.00;18.07
74561;BME280;62979;55.720;37.606;2023-04-24T09:05:17;99759.19;;;23.58;18.29
74561;BME280;62979;55.720;37.606;2023-04-24T09:07:52;99753.63;;;23.61;18.75
74561;BME280;62979;55.720;37.606;2023-04-24T09:10:22;99763.44;;;23.72;18.68
74561;BME280;62979;55.720;37.606;2023-04-24T09:12:50;99762.81;;;23.57;18.38
74561;BME280;62979;55.720;37.606;2023-04-24T09:15:18;99758.28;;;23.24;18.73
74561;BME280;62979;55.720;37.606;2023-04-24T09:17:45;99763.88;;;22.84;18.84
74561;BME280;62979;55.720;37.606;2023-04-24T09:20:13;99757.78;;;22.71;19.85
74561;BME280;62979;55.720;37.606;2023-04-24T09:22:40;99752.66;;;22.68;19.66
74561;BME280;62979;55.720;37.606;2023-04-24T09:25:10;99748.69;;;22.73;18.98
74561;BME280;62979;55.720;37.606;2023-04-24T09:27:41;99748.13;;;22.81;19.13
74561;BME280;62979;55.720;37.606;2023-04-24T09:30:10;99740.38;;;22.78;19.46
74561;BME280;62979;55.720;37.606;2023-04-24T09:32:38;99741.63;;;22.85;19.27
74561;BME280;62979;55.720;37.606;2023-04-24T09:35:06;99747.22;;;22.69;19.00
74561;BME280;62979;55.720;37.606;2023-04-24T09:37:35;99742.91;;;22.55;19.25
74561;BME280;62979;55.720;37.606;2023-04-24T09:40:15;99732.75;;;22.60;19.57
74561;BME280;62979;55.720;37.606;2023-04-24T09:42:44;99732.56;;;22.75;18.74
74561;BME280;62979;55.720;37.606;2023-04-24T09:45:12;99728.53;;;23.17;18.80
74561;BME280;62979;55.720;37.606;2023-04-24T09:47:40;99731.69;;;23.80;18.72
74561;BME280;62979;55.720;37.606;2023-04-24T09:50:12;99711.94;;;24.49;17.41
74561;BME280;62979;55.720;37.606;2023-04-24T09:52:44;99725.06;;;24.52;17.51
74561;BME280;62979;55.720;37.606;2023-04-24T09:55:16;99718.97;;;25.14;17.02
74561;BME280;62979;55.720;37.606;2023-04-24T09:57:50;99716.84;;;25.29;17.17
74561;BME280;62979;55.720;37.606;2023-04-24T10:00:20;99718.38;;;25.11;16.79
74561;BME280;62979;55.720;37.606;2023-04-24T10:02:54;99723.22;;;24.85;17.25
74561;BME280;62979;55.720;37.606;2023-04-24T10:05:28;99717.38;;;24.59;16.94
74561;BME280;62979;55.720;37.606;2023-04-24T10:07:57;99715.59;;;24.48;17.54
74561;BME280;62979;55.720;37.606;2023-04-24T10:10:28;99716.50;;;24.69;17.26
74561;BME280;62979;55.720;37.606;2023-04-24T10:12:56;99685.97;;;24.28;17.40
74561;BME280;62979;55.720;37.606;2023-04-24T10:15:24;99709.75;;;24.54;18.28
74561;BME280;62979;55.720;37.606;2023-04-24T10:17:52;99714.00;;;25.10;17.29
74561;BME280;62979;55.720;37.606;2023-04-24T10:20:21;99705.75;;;25.34;16.98
74561;BME280;62979;55.720;37.606;2023-04-24T10:22:51;99709.69;;;25.60;16.69
74561;BME280;62979;55.720;37.606;2023-04-24T10:25:19;99709.81;;;25.59;16.84
74561;BME280;62979;55.720;37.606;2023-04-24T10:27:49;99696.09;;;25.52;16.58
74561;BME280;62979;55.720;37.606;2023-04-24T10:30:18;99690.75;;;25.83;16.48
74561;BME280;62979;55.720;37.606;2023-04-24T10:32:45;99694.50;;;26.81;15.84
74561;BME280;62979;55.720;37.606;2023-04-24T10:35:13;99680.03;;;27.30;15.19
74561;BME280;62979;55.720;37.606;2023-04-24T10:37:44;99689.59;;;28.00;14.81
74561;BME280;62979;55.720;37.606;2023-04-24T10:40:17;99688.59;;;28.46;14.25
74561;BME280;62979;55.720;37.606;2023-04-24T10:42:49;99687.88;;;29.16;14.02
74561;BME280;62979;55.720;37.606;2023-04-24T10:45:20;99683.41;;;29.51;13.57
74561;BME280;62979;55.720;37.606;2023-04-24T10:47:53;99690.63;;;29.76;13.47
74561;BME280;62979;55.720;37.606;2023-04-24T10:50:26;99692.88;;;30.32;12.97
74561;BME280;62979;55.720;37.606;2023-04-24T10:53:05;99685.50;;;30.66;12.52
74561;BME280;62979;55.720;37.606;2023-04-24T10:55:40;99682.81;;;31.16;12.00
74561;BME280;62979;55.720;37.606;2023-04-24T10:58:10;99686.88;;;31.36;11.83
74561;BME280;62979;55.720;37.606;2023-04-24T11:00:39;99702.41;;;31.26;12.11
74561;BME280;62979;55.720;37.606;2023-04-24T11:03:22;99690.59;;;31.19;12.13
74561;BME280;62979;55.720;37.606;2023-04-24T11:06:01;99677.63;;;31.78;12.04
74561;BME280;62979;55.720;37.606;2023-04-24T11:08:31;99684.63;;;32.12;11.86
74561;BME280;62979;55.720;37.606;2023-04-24T11:11:09;99684.56;;;32.51;11.56
74561;BME280;62979;55.720;37.606;2023-04-24T11:14:07;99694.78;;;32.41;10.97
74561;BME280;62979;55.720;37.606;2023-04-24T11:16:39;99696.69;;;31.93;11.20
74561;BME280;62979;55.720;37.606;2023-04-24T11:19:17;99677.84;;;32.39;11.01
74561;BME280;62979;55.720;37.606;2023-04-24T11:21:48;99669.03;;;32.14;10.95
74561;BME280;62979;55.720;37.606;2023-04-24T11:24:32;99673.84;;;31.23;11.58
74561;BME280;62979;55.720;37.606;2023-04-24T11:27:06;99662.84;;;30.26;12.74
74561;BME280;62979;55.720;37.606;2023-04-24T11:29:45;99664.81;;;29.39;12.98
74561;BME280;62979;55.720;37.606;2023-04-24T11:32:15;99662.03;;;29.05;13.15
74561;BME280;62979;55.720;37.606;2023-04-24T11:34:46;99655.28;;;28.83;13.24
74561;BME280;62979;55.720;37.606;2023-04-24T11:37:15;99656.75;;;29.48;12.99
74561;BME280;62979;55.720;37.606;2023-04-24T11:39:42;99650.50;;;28.95;13.26
74561;BME280;62979;55.720;37.606;2023-04-24T11:42:09;99651.25;;;29.05;13.25
74561;BME280;62979;55.720;37.606;2023-04-24T11:44:36;99635.69;;;29.77;12.71
74561;BME280;62979;55.720;37.606;2023-04-24T11:47:05;99630.69;;;29.91;12.61
74561;BME280;62979;55.720;37.606;2023-04-24T11:49:33;99634.88;;;30.44;12.35
74561;BME280;62979;55.720;37.606;2023-04-24T11:52:00;99627.66;;;31.66;11.65
74561;BME280;62979;55.720;37.606;2023-04-24T11:54:27;99624.09;;;32.59;11.27
74561;BME280;62979;55.720;37.606;2023-04-24T11:56:55;99604.81;;;32.77;10.57
74561;BME280;62979;55.720;37.606;2023-04-24T11:59:22;99620.69;;;33.03;10.76
74561;BME280;62979;55.720;37.606;2023-04-24T12:01:50;99621.91;;;33.45;10.21
74561;BME280;62979;55.720;37.606;2023-04-24T12:04:18;99616.34;;;34.34;10.19
74561;BME280;62979;55.720;37.606;2023-04-24T12:07:00;99606.50;;;34.33;9.61
74561;BME280;62979;55.720;37.606;2023-04-24T12:09:27;99600.97;;;34.20;10.06
74561;BME280;62979;55.720;37.606;2023-04-24T12:11:55;99623.91;;;34.60;9.33
74561;BME280;62979;55.720;37.606;2023-04-24T12:14:23;99611.06;;;34.69;9.31
74561;BME280;62979;55.720;37.606;2023-04-24T12:16:50;99622.91;;;34.89;9.71
74561;BME280;62979;55.720;37.606;2023-04-24T12:19:20;99621.50;;;34.65;9.65
74561;BME280;62979;55.720;37.606;2023-04-24T12:22:04;99627.59;;;34.74;9.33
74561;BME280;62979;55.720;37.606;2023-04-24T12:24:32;99616.53;;;33.96;10.14
74561;BME280;62979;55.720;37.606;2023-04-24T12:26:59;99616.22;;;33.25;10.32
74561;BME280;62979;55.720;37.606;2023-04-24T12:29:26;99604.16;;;32.90;10.20
74561;BME280;62979;55.720;37.606;2023-04-24T12:31:53;99600.88;;;32.41;10.71
74561;BME280;62979;55.720;37.606;2023-04-24T12:34:23;99595.59;;;31.54;11.33
74561;BME280;62979;55.720;37.606;2023-04-24T12:36:51;99607.25;;;30.83;11.74
74561;BME280;62979;55.720;37.606;2023-04-24T12:39:20;99597.75;;;30.38;12.24
74561;BME280;62979;55.720;37.606;2023-04-24T12:41:58;99595.59;;;30.66;12.30
74561;BME280;62979;55.720;37.606;2023-04-24T12:44:30;99583.47;;;31.82;11.02
74561;BME280;62979;55.720;37.606;2023-04-24T12:47:00;99588.66;;;32.83;10.57
74561;BME280;62979;55.720;37.606;2023-04-24T12:49:30;99583.09;;;33.00;10.22
74561;BME280;62979;55.720;37.606;2023-04-24T12:51:57;99585.75;;;33.23;10.04
74561;BME280;62979;55.720;37.606;2023-04-24T12:54:24;99584.25;;;32.45;10.43
74561;BME280;62979;55.720;37.606;2023-04-24T12:56:51;99582.81;;;31.48;10.76